الصفحة الرئيسية
METAR-TAF:

METAR-TAF

مطار :

مطار أربيل الدولي

أربيل, العراق

دائرة عرض: 36-14-15N, خط طول: 43-57-47E, ارتفاع: 415 متر

مراقبة الطقس الحالي

تاريخ ووقت الإصدار 52 دقيقة قبل الساعة 03:00UTC
ريح 4 عقدة من الشمال
درجة الحرارة 28°درجة مئوية
الرطوبة 22%
ضغط 1009 hPa
الرؤية: 9000 متر

METAR: ORER 190300Z 35004KT 9000 NSC 28/04 Q1009

زمن: 06:52 (03:52 UTC)

توقعات

تاريخ ووقت الإصدار 5ساعات و 52 دقيقة قبل الساعة 22:00UTC
التوقعات صالحة من19 الساعة 00 UTC إلى 19 الساعة 24 UTC
ريح 2 عقدةمن اتجاهات متغيرة
الرؤية: 8000 متر
أصبح
من 19 الساعة 08 UTC إلى 19 الساعة 10 UTC
ريح 10 عقدة من الغرب/الشمال الغربي
نظرية الاحتمالات 30% :
مؤقت
من 19 الساعة 10 UTC إلى 19 الساعة 16 UTC
ريح 10 عقدة من الغرب/الشمال الغربي تتزايد حتى 20 عقدة

TAF: ORER 182200Z 1900/1924 VRB02KT 8000 NSC BECMG 1908/1910 29010KT PROB30 TEMPO 1910/1916 29010G20KT

أرصاد الطقس والتوقعات من أكثر من 4000 مطار (تقارير الطقس للمطار METAR والتنبؤ بالطقس بالمطارTAF).

المحطات المتاحة هي النقط الصفراء والحمراء على الخريطة.

حرك المؤشر فوق النقطة لمعرفة اسم المحطة.

ثم انقر لمعرفة أرصاد وتوقعات الطقس.

لتغيير الخارطة: اضغط على الأزرار الخضراء مع رمز الصليب الأسود للتكبير. على الزر الأخضر مع شرطة للتصغير، أو على الأسهم الخضراء للخرائط المجاورة.


METAR-TAF: